Terminal Aerodrome Forecast
Issued by NWS Cleveland, OH

Home | Current Version | Previous Version | Text Only | Print | Product List | Glossary On
Versions: 1 2 3 4 5 6 7 8 9 10 11 12 13 14 15 16 17
000
FTUS41 KCLE 181735
TAFCAK
TAF
KCAK 181735Z 1818/1918 21009KT 2SM -DZ OVC004
      TEMPO 1818/1822 3SM -DZ BR OVC007
     FM182300 23012KT 5SM BR OVC007
     FM191500 24015G25KT P6SM SCT007 OVC025=

USA.gov is the U.S. government's official web portal to all federal, state and local government web resources and services.